Time;durP1;ratioP1;P1;durP2;ratioP2;P2;SDS_P1;SDS_P2;PMS_P1;PMS_P2;Temp;Humidity;BMP_temperature;BMP_pressure;BME280_temperature;BME280_humidity;BME280_pressure;Samples;Min_cycle;Max_cycle;Signal;HPM_P1;HPM_P2
2022/07/15 00:00:25;;;;;;;5.75;1.85;;;;;;;21.16;67.24;102081.56;7388374;19;20527;-47
2022/07/15 00:02:54;;;;;;;8.43;2.03;;;;;;;21.23;66.24;102088.16;7392663;19;20372;-47
2022/07/15 00:05:23;;;;;;;6.63;1.98;;;;;;;20.79;69.42;102090.25;7387678;19;20010;-46
2022/07/15 00:07:52;;;;;;;8.10;2.05;;;;;;;20.45;71.00;102092.47;7392101;19;20019;-46
2022/07/15 00:10:24;;;;;;;7.40;2.20;;;;;;;19.95;75.34;102085.97;7390174;19;20018;-49
2022/07/15 00:12:55;;;;;;;12.23;3.22;;;;;;;20.39;72.47;102088.41;7391501;19;20360;-46
2022/07/15 00:15:26;;;;;;;7.43;2.17;;;;;;;20.46;72.01;102094.19;7388587;19;20499;-45
2022/07/15 00:17:57;;;;;;;6.80;2.10;;;;;;;20.11;74.40;102083.19;7388918;19;20026;-46
2022/07/15 00:20:26;;;;;;;9.60;2.58;;;;;;;20.25;73.53;102084.94;7387957;19;20036;-48
2022/07/15 00:22:56;;;;;;;6.78;2.60;;;;;;;20.50;71.74;102092.16;7387553;19;20015;-47
2022/07/15 00:25:28;;;;;;;11.50;2.63;;;;;;;20.26;73.16;102098.16;7387383;19;20361;-48
2022/07/15 00:27:58;;;;;;;6.22;2.15;;;;;;;20.09;74.76;102098.38;7389349;19;20018;-47
2022/07/15 00:30:32;;;;;;;9.32;2.47;;;;;;;20.26;73.63;102095.50;7393628;19;20337;-47
2022/07/15 00:33:01;;;;;;;8.68;2.55;;;;;;;20.36;73.00;102093.06;7395171;19;20348;-45
2022/07/15 00:35:30;;;;;;;11.60;2.50;;;;;;;20.43;72.40;102089.06;7395168;19;20059;-45
2022/07/15 00:37:59;;;;;;;7.07;2.25;;;;;;;20.24;73.55;102086.75;7394106;19;20014;-47
2022/07/15 00:40:31;;;;;;;7.50;2.65;;;;;;;20.28;73.72;102090.06;7394782;19;20002;-45
2022/07/15 00:43:00;;;;;;;5.70;2.25;;;;;;;20.37;72.94;102085.00;7396904;19;20006;-45
2022/07/15 00:45:28;;;;;;;11.60;2.60;;;;;;;20.35;73.87;102091.38;7397204;19;20014;-45
2022/07/15 00:47:59;;;;;;;7.85;2.80;;;;;;;19.93;76.19;102091.41;7395999;19;20006;-48
2022/07/15 00:50:30;;;;;;;8.60;2.45;;;;;;;19.54;78.88;102082.25;7397264;19;20453;-52
2022/07/15 00:53:03;;;;;;;5.95;2.30;;;;;;;19.38;80.85;102084.19;7398353;19;20014;-48
2022/07/15 00:55:41;;;;;;;5.70;2.60;;;;;;;19.51;80.23;102088.66;7393929;19;20026;-49
2022/07/15 00:58:13;;;;;;;6.80;2.45;;;;;;;19.85;77.65;102091.88;7393226;19;20026;-49
2022/07/15 01:00:42;;;;;;;5.25;2.67;;;;;;;19.60;79.33;102084.56;7395050;19;20014;-51
2022/07/15 01:03:11;;;;;;;8.73;2.75;;;;;;;19.87;77.91;102091.75;7394193;19;20098;-51
2022/07/15 01:05:41;;;;;;;8.98;2.47;;;;;;;19.65;78.92;102082.44;7392022;19;20026;-48
2022/07/15 01:08:10;;;;;;;7.25;2.40;;;;;;;19.74;78.65;102085.50;7394635;19;20018;-45
2022/07/15 01:10:43;;;;;;;7.70;2.40;;;;;;;19.60;79.77;102087.22;7394592;19;20598;-46
2022/07/15 01:13:12;;;;;;;8.60;2.42;;;;;;;19.94;77.95;102076.28;7395185;19;20368;-46
2022/07/15 01:15:41;;;;;;;10.18;2.38;;;;;;;19.93;77.62;102087.88;7393020;19;20340;-48
2022/07/15 01:18:10;;;;;;;7.57;2.15;;;;;;;19.95;77.55;102085.97;7391678;19;20517;-48
2022/07/15 01:20:47;;;;;;;;;;;;;;;19.58;80.69;102082.94;7398681;19;20026;-46
2022/07/15 01:23:16;;;;;;;5.07;1.95;;;;;;;19.83;78.95;102088.47;7394230;19;19919;-46
2022/07/15 01:25:53;;;;;;;6.90;2.35;;;;;;;19.90;78.56;102085.41;7395012;19;20732;-45
2022/07/15 01:28:22;;;;;;;7.38;2.08;;;;;;;19.79;78.93;102083.44;7391812;19;20029;-48
2022/07/15 01:30:51;;;;;;;9.68;2.13;;;;;;;19.84;79.21;102089.31;7395699;19;20378;-47
2022/07/15 01:33:20;;;;;;;8.07;2.60;;;;;;;19.92;78.38;102083.50;7392269;19;20029;-48
2022/07/15 01:35:52;;;;;;;7.90;2.50;;;;;;;19.97;78.02;102081.41;7393200;19;20022;-45
2022/07/15 01:38:21;;;;;;;10.40;2.42;;;;;;;20.21;76.53;102079.81;7393041;19;20037;-50
2022/07/15 01:40:56;;;;;;;6.50;2.22;;;;;;;20.36;75.97;102082.41;7392235;19;20018;-51
2022/07/15 01:43:25;;;;;;;7.20;2.40;;;;;;;20.21;76.46;102092.28;7390653;19;20021;-50
2022/07/15 01:45:55;;;;;;;6.18;2.13;;;;;;;20.17;77.11;102085.44;7392772;19;20487;-48
2022/07/15 01:51:41;;;;;;;7.90;2.40;;;;;;;20.53;75.11;102095.50;7396616;19;20029;-49
2022/07/15 01:54:11;;;;;;;8.23;2.93;;;;;;;20.39;74.44;102093.72;7392574;19;20431;-47
2022/07/15 01:56:40;;;;;;;8.23;2.55;;;;;;;20.29;75.19;102103.28;7392176;19;20034;-46
2022/07/15 01:59:09;;;;;;;7.15;2.85;;;;;;;19.93;78.58;102099.38;7391084;19;20006;-47
2022/07/15 02:01:38;;;;;;;5.82;2.55;;;;;;;19.69;80.27;102094.59;7393891;19;20025;-47
2022/07/15 02:04:12;;;;;;;7.18;2.83;;;;;;;19.71;81.25;102099.81;7393608;19;20032;-46
2022/07/15 02:06:44;;;;;;;5.50;2.25;;;;;;;19.84;79.96;102095.50;7393603;19;20056;-55
2022/07/15 02:09:16;;;;;;;8.50;2.67;;;;;;;19.75;80.87;102101.34;7390834;19;20037;-49
2022/07/15 02:11:48;;;;;;;5.63;2.20;;;;;;;19.52;83.83;102097.47;7394958;19;20463;-49
2022/07/15 02:14:17;;;;;;;8.32;2.38;;;;;;;19.33;84.58;102087.97;7392207;19;20371;-46
2022/07/15 02:16:46;;;;;;;7.32;2.38;;;;;;;19.47;83.49;102091.56;7390888;19;20010;-52
2022/07/15 02:19:19;;;;;;;6.45;2.05;;;;;;;19.62;83.05;102092.44;7393453;19;20451;-50
2022/07/15 02:21:51;;;;;;;6.85;2.25;;;;;;;19.82;80.73;102096.53;7394275;19;20046;-48
2022/07/15 02:24:20;;;;;;;8.20;2.42;;;;;;;19.38;83.46;102090.34;7391783;19;20014;-46
2022/07/15 02:26:51;;;;;;;7.72;2.60;;;;;;;19.56;82.96;102085.69;7392137;19;20141;-49
2022/07/15 02:29:20;;;;;;;8.52;2.13;;;;;;;19.76;81.99;102091.56;7389228;19;20018;-48
2022/07/15 02:31:49;;;;;;;7.25;2.65;;;;;;;19.70;81.32;102091.00;7393861;19;20022;-48
2022/07/15 02:34:17;;;;;;;9.32;2.40;;;;;;;19.75;81.46;102085.38;7393502;19;20018;-46
2022/07/15 02:36:46;;;;;;;6.60;2.03;;;;;;;19.90;80.33;102096.88;7390897;19;20026;-46
2022/07/15 02:39:18;;;;;;;9.13;1.98;;;;;;;20.00;79.70;102097.16;7392001;19;20017;-48
2022/07/15 02:41:50;;;;;;;5.60;1.88;;;;;;;20.08;78.63;102096.69;7392113;19;20010;-46
2022/07/15 02:44:19;;;;;;;7.28;2.10;;;;;;;20.12;77.44;102098.19;7389567;19;20456;-48
2022/07/15 02:46:50;;;;;;;9.00;2.22;;;;;;;20.19;77.77;102100.34;7391323;19;20028;-47
2022/07/15 02:49:25;;;;;;;8.43;2.30;;;;;;;20.35;76.22;102097.53;7388866;19;20018;-48
2022/07/15 02:51:54;;;;;;;6.95;2.30;;;;;;;20.34;75.10;102097.66;7391770;19;20014;-51
2022/07/15 02:54:27;;;;;;;8.60;2.00;;;;;;;20.12;76.81;102100.88;7390203;19;20029;-53
2022/07/15 02:56:57;;;;;;;4.95;1.92;;;;;;;19.96;77.66;102103.63;7392955;19;20025;-50
2022/07/15 02:59:29;;;;;;;8.00;2.10;;;;;;;20.09;76.58;102093.94;7388533;19;20066;-49
2022/07/15 03:02:00;;;;;;;8.35;2.20;;;;;;;20.36;75.44;102095.72;7393423;19;20368;-48
2022/07/15 03:04:31;;;;;;;7.82;2.13;;;;;;;20.38;75.15;102094.69;7388684;19;20022;-49
2022/07/15 03:07:00;;;;;;;7.57;2.20;;;;;;;20.39;74.40;102106.19;7392628;19;20023;-49
2022/07/15 03:09:31;;;;;;;7.20;1.98;;;;;;;20.33;74.97;102109.25;7388214;19;20491;-47
2022/07/15 03:12:00;;;;;;;5.45;1.70;;;;;;;20.39;75.05;102114.19;7392502;19;20019;-47
2022/07/15 03:14:29;;;;;;;5.40;1.65;;;;;;;20.48;73.62;102108.25;7388010;19;20045;-48
2022/07/15 03:16:58;;;;;;;6.53;1.88;;;;;;;20.65;73.79;102119.59;7389985;19;20074;-49
2022/07/15 03:19:28;;;;;;;6.93;1.83;;;;;;;20.71;73.48;102124.53;7387705;19;20483;-49
2022/07/15 03:21:57;;;;;;;5.50;2.10;;;;;;;20.58;73.37;102125.31;7393168;19;20013;-47
2022/07/15 03:24:27;;;;;;;9.40;2.65;;;;;;;20.57;72.49;102123.63;7391089;19;20078;-47
2022/07/15 03:27:01;;;;;;;7.70;1.98;;;;;;;20.68;73.83;102117.59;7391598;19;20107;-51
2022/07/15 03:29:31;;;;;;;31.77;4.85;;;;;;;20.63;72.48;102127.69;7387265;19;20352;-52
2022/07/15 03:32:00;;;;;;;10.52;2.63;;;;;;;20.42;73.66;102127.28;7392948;19;20018;-51
2022/07/15 03:34:30;;;;;;;17.02;2.67;;;;;;;20.46;73.86;102133.25;7389135;19;20371;-49
2022/07/15 03:36:59;;;;;;;4.43;1.92;;;;;;;20.28;74.74;102124.69;7391562;19;20017;-49
2022/07/15 03:39:28;;;;;;;6.75;2.17;;;;;;;20.36;74.89;102125.00;7387013;19;20017;-49
2022/07/15 03:41:57;;;;;;;5.55;1.77;;;;;;;20.58;74.86;102129.78;7392741;19;20013;-53
2022/07/15 03:44:28;;;;;;;6.30;2.38;;;;;;;20.34;75.14;102130.44;7387973;19;20019;-48
2022/07/15 03:46:58;;;;;;;7.18;2.20;;;;;;;20.10;76.37;102138.22;7391817;19;20471;-47
2022/07/15 03:49:27;;;;;;;4.03;1.65;;;;;;;20.17;76.33;102138.66;7386582;19;20018;-48
2022/07/15 03:51:56;;;;;;;7.55;1.98;;;;;;;20.15;76.48;102143.25;7389252;19;20526;-48
2022/07/15 03:54:25;;;;;;;6.75;1.67;;;;;;;20.20;76.57;102149.97;7388954;19;20022;-47
2022/07/15 03:56:54;;;;;;;8.63;2.20;;;;;;;20.31;75.67;102151.09;7390414;19;20015;-49
2022/07/15 03:59:23;;;;;;;8.48;2.05;;;;;;;20.44;74.93;102148.50;7385599;19;20026;-50
2022/07/15 04:01:55;;;;;;;6.40;1.90;;;;;;;20.40;75.14;102154.03;7391698;19;20076;-50
2022/07/15 04:04:24;;;;;;;6.55;1.67;;;;;;;20.49;75.52;102155.22;7390528;19;20103;-51
2022/07/15 04:06:53;;;;;;;7.90;1.67;;;;;;;20.25;75.78;102155.00;7396377;19;20029;-48
2022/07/15 04:09:25;;;;;;;7.68;1.90;;;;;;;20.27;75.61;102166.38;7396515;19;20018;-52
2022/07/15 04:11:55;;;;;;;6.15;1.80;;;;;;;20.20;75.65;102155.31;7398565;19;20115;-47
2022/07/15 04:14:24;;;;;;;6.35;1.65;;;;;;;20.36;75.39;102159.63;7398489;19;20081;-50
2022/07/15 04:16:56;;;;;;;7.15;1.88;;;;;;;20.32;75.47;102158.97;7395617;19;20094;-50
2022/07/15 04:19:36;;;;;;;5.40;1.77;;;;;;;20.13;76.30;102161.09;7391808;19;20018;-48
2022/07/15 04:22:06;;;;;;;8.18;1.80;;;;;;;20.37;75.42;102161.34;7400410;19;20019;-47
2022/07/15 04:24:41;;;;;;;6.47;2.00;;;;;;;20.26;76.27;102166.50;7398447;19;20452;-49
2022/07/15 04:27:14;;;;;;;9.57;2.20;;;;;;;20.12;76.52;102156.75;7395959;19;20015;-47
2022/07/15 04:29:43;;;;;;;8.00;2.00;;;;;;;19.81;79.20;102159.50;7399530;19;20011;-47
2022/07/15 04:32:17;;;;;;;7.43;2.03;;;;;;;19.99;77.78;102165.50;7394353;19;20010;-47
2022/07/15 04:34:50;;;;;;;5.32;1.77;;;;;;;20.07;77.95;102161.50;7393796;19;20015;-49
2022/07/15 04:37:21;;;;;;;7.40;2.10;;;;;;;20.28;76.23;102165.44;7394908;19;20452;-50
2022/07/15 04:39:54;;;;;;;6.28;1.45;;;;;;;20.40;76.62;102166.47;7397531;19;20025;-52
2022/07/15 04:42:24;;;;;;;8.10;2.08;;;;;;;20.40;75.39;102171.78;7398012;19;20015;-51
2022/07/15 04:44:53;;;;;;;6.65;1.60;;;;;;;20.16;75.69;102169.75;7395058;19;20029;-53
2022/07/15 04:47:25;;;;;;;6.85;1.75;;;;;;;19.97;77.92;102171.84;7395312;19;20022;-50
2022/07/15 04:52:45;;;;;;;6.68;1.67;;;;;;;20.09;77.16;102178.19;7406653;19;20031;-48
2022/07/15 04:55:14;;;;;;;;;;;;;;;20.27;76.22;102178.84;7406634;19;20023;-47
2022/07/15 04:57:43;;;;;;;7.40;1.90;;;;;;;20.14;77.35;102179.63;7396373;19;19930;-47
2022/07/15 05:00:13;;;;;;;14.27;1.88;;;;;;;19.38;81.86;102175.41;7394162;19;20018;-47
2022/07/15 05:02:45;;;;;;;9.07;1.98;;;;;;;19.74;81.02;102175.91;7394443;19;20015;-50
2022/07/15 05:05:14;;;;;;;8.48;1.90;;;;;;;19.10;84.78;102184.16;7395405;19;20040;-47
2022/07/15 05:07:43;;;;;;;7.40;1.88;;;;;;;18.81;87.77;102184.88;7393223;19;20078;-46
2022/07/15 05:10:13;;;;;;;8.88;1.88;;;;;;;19.23;84.85;102186.94;7396250;19;20490;-47
2022/07/15 05:12:49;;;;;;;10.95;1.80;;;;;;;19.79;82.48;102180.03;7404869;19;20415;-51
2022/07/15 05:15:18;;;;;;;7.50;1.50;;;;;;;19.82;81.20;102185.16;7394555;19;20030;-51
2022/07/15 05:17:49;;;;;;;27.52;3.22;;;;;;;19.82;80.91;102184.31;7394636;19;20025;-53
2022/07/15 05:20:22;;;;;;;7.22;1.70;;;;;;;19.32;83.60;102191.72;7395557;19;20466;-48
2022/07/15 05:22:52;;;;;;;7.75;1.80;;;;;;;19.72;82.01;102189.31;7397211;19;20022;-50
2022/07/15 05:25:22;;;;;;;9.27;2.28;;;;;;;19.71;81.17;102190.25;7393949;19;20026;-50
2022/07/15 05:27:52;;;;;;;8.10;1.80;;;;;;;19.22;85.83;102191.41;7396044;19;20022;-47
2022/07/15 05:30:21;;;;;;;9.25;2.10;;;;;;;19.43;84.39;102181.31;7396161;19;20011;-46
2022/07/15 05:32:52;;;;;;;6.57;2.22;;;;;;;18.65;89.68;102192.88;7397090;19;20479;-46
2022/07/15 05:35:24;;;;;;;6.60;1.80;;;;;;;18.75;90.69;102181.72;7393206;19;20025;-45
2022/07/15 05:37:55;;;;;;;8.43;2.00;;;;;;;19.34;87.06;102182.72;7394646;19;20057;-47
2022/07/15 05:40:29;;;;;;;12.98;2.50;;;;;;;19.76;83.96;102184.66;7393189;19;20026;-48
2022/07/15 05:42:58;;;;;;;15.52;2.95;;;;;;;19.85;82.55;102187.63;7392571;19;20026;-45
2022/07/15 05:45:28;;;;;;;8.52;2.05;;;;;;;19.97;80.16;102193.13;7392296;19;20019;-47
2022/07/15 05:48:08;;;;;;;7.97;2.13;;;;;;;19.12;88.27;102192.91;7392061;19;20030;-46
2022/07/15 05:50:46;;;;;;;6.22;1.80;;;;;;;19.36;86.20;102191.44;7395638;19;20111;-53
2022/07/15 05:53:16;;;;;;;6.15;1.90;;;;;;;19.46;86.87;102188.25;7395655;19;20130;-50
2022/07/15 05:55:47;;;;;;;10.25;2.17;;;;;;;19.77;83.87;102192.56;7394281;19;20033;-47
2022/07/15 05:58:20;;;;;;;19.20;3.33;;;;;;;20.13;81.95;102193.03;7394342;19;20486;-49
2022/07/15 06:00:49;;;;;;;22.15;2.92;;;;;;;19.79;83.65;102187.19;7393988;19;20018;-50
2022/07/15 06:03:21;;;;;;;8.13;2.60;;;;;;;20.07;81.34;102180.13;7395090;19;20022;-48
2022/07/15 06:05:50;;;;;;;8.00;2.20;;;;;;;20.15;82.13;102186.66;7394672;19;20026;-51
2022/07/15 06:08:20;;;;;;;14.27;2.58;;;;;;;20.48;80.53;102185.47;7392323;19;20431;-50
2022/07/15 06:10:49;;;;;;;10.30;2.40;;;;;;;20.55;78.87;102189.44;7394132;19;20490;-50
2022/07/15 06:13:20;;;;;;;11.07;2.65;;;;;;;20.71;77.88;102183.16;7393846;19;20472;-47
2022/07/15 06:15:49;;;;;;;15.38;2.80;;;;;;;20.87;77.10;102189.16;7392523;19;20042;-51
2022/07/15 06:18:25;;;;;;;7.90;2.10;;;;;;;21.00;74.93;102183.88;7391987;19;20022;-53
2022/07/15 06:20:54;;;;;;;14.27;6.18;;;;;;;21.04;75.08;102180.03;7393686;19;20046;-51
2022/07/15 06:23:23;;;;;;;13.55;3.80;;;;;;;21.15;74.37;102186.47;7391417;19;20022;-46
2022/07/15 06:25:55;;;;;;;7.47;2.00;;;;;;;21.15;75.19;102184.66;7395242;19;20022;-48
2022/07/15 06:28:24;;;;;;;11.13;2.45;;;;;;;21.25;74.55;102183.06;7393210;19;20019;-47
2022/07/15 06:30:53;;;;;;;8.68;2.58;;;;;;;21.06;75.89;102187.94;7393977;19;20483;-46
2022/07/15 06:33:24;;;;;;;21.98;2.75;;;;;;;21.01;76.44;102180.25;7393952;19;20014;-48
2022/07/15 06:35:55;;;;;;;22.55;2.90;;;;;;;20.92;75.34;102183.53;7395164;19;20019;-46
2022/07/15 06:38:24;;;;;;;7.07;1.80;;;;;;;20.97;74.08;102183.22;7395871;19;20039;-47
2022/07/15 06:40:53;;;;;;;9.25;1.75;;;;;;;21.09;72.27;102185.09;7394556;19;20474;-47
2022/07/15 06:43:23;;;;;;;7.68;1.50;;;;;;;21.21;70.39;102188.72;7392533;19;20356;-46
2022/07/15 06:45:59;;;;;;;5.95;1.25;;;;;;;21.40;69.87;102196.31;7405445;19;20027;-45
2022/07/15 06:48:28;;;;;;;9.48;1.30;;;;;;;21.44;67.13;102190.66;7397813;19;20422;-47
2022/07/15 06:50:59;;;;;;;6.47;1.60;;;;;;;21.46;65.63;102187.03;7395171;19;20086;-46
2022/07/15 06:53:29;;;;;;;10.80;2.23;;;;;;;21.51;65.19;102185.81;7392435;19;20015;-46
2022/07/15 06:55:58;;;;;;;9.82;1.75;;;;;;;21.62;64.32;102190.41;7393951;19;20017;-51
2022/07/15 06:58:26;;;;;;;8.38;1.95;;;;;;;21.61;66.05;102183.34;7393519;19;20018;-46
2022/07/15 07:00:55;;;;;;;9.32;1.95;;;;;;;21.67;65.24;102190.09;7393167;19;20086;-45
2022/07/15 07:03:24;;;;;;;9.55;1.88;;;;;;;21.74;64.94;102197.53;7393158;19;20494;-46
2022/07/15 07:05:53;;;;;;;9.32;1.77;;;;;;;21.82;64.59;102188.13;7396362;19;20025;-46
2022/07/15 07:08:25;;;;;;;7.65;1.80;;;;;;;21.77;63.10;102189.31;7390650;19;20026;-48
2022/07/15 07:10:54;;;;;;;12.40;1.65;;;;;;;21.99;63.75;102190.47;7396857;19;20018;-47
2022/07/15 07:13:23;;;;;;;6.82;1.55;;;;;;;22.07;62.98;102190.78;7391857;19;20082;-46
2022/07/15 07:15:52;;;;;;;9.20;1.80;;;;;;;21.99;63.17;102187.78;7391117;19;20025;-46
2022/07/15 07:18:21;;;;;;;15.63;1.67;;;;;;;22.09;62.42;102188.88;7390312;19;20360;-45
2022/07/15 07:20:50;;;;;;;18.48;1.98;;;;;;;22.18;59.34;102192.69;7392345;19;20484;-51
2022/07/15 07:23:20;;;;;;;6.68;1.17;;;;;;;21.72;59.79;102202.13;7395637;19;20025;-47
2022/07/15 07:25:51;;;;;;;7.13;2.03;;;;;;;22.08;59.46;102199.66;7391675;19;20407;-47
2022/07/15 07:28:20;;;;;;;8.25;1.02;;;;;;;22.00;56.47;102199.34;7391793;19;20620;-47
2022/07/15 07:30:50;;;;;;;161.75;11.93;;;;;;;21.75;57.24;102201.91;7392574;19;20035;-49
2022/07/15 07:33:19;;;;;;;24.30;2.30;;;;;;;21.74;58.86;102200.19;7390311;19;20387;-51
2022/07/15 07:35:48;;;;;;;16.58;1.75;;;;;;;22.11;56.18;102196.75;7390077;19;20018;-48
2022/07/15 07:38:18;;;;;;;3.92;1.00;;;;;;;22.24;52.66;102212.75;7388888;19;20022;-51
2022/07/15 07:40:47;;;;;;;4.20;1.15;;;;;;;21.48;55.64;102202.00;7388308;19;20021;-48
2022/07/15 07:43:20;;;;;;;9.95;1.20;;;;;;;22.02;57.19;102214.28;7390616;19;20018;-51
2022/07/15 07:45:49;;;;;;;4.72;0.90;;;;;;;22.28;53.74;102203.56;7390784;19;20006;-52
2022/07/15 07:48:19;;;;;;;9.65;1.40;;;;;;;22.28;52.37;102207.06;7392400;19;20014;-52
2022/07/15 07:50:48;;;;;;;4.32;1.10;;;;;;;22.34;52.44;102203.16;7392928;19;20015;-47
2022/07/15 07:53:17;;;;;;;2.28;0.90;;;;;;;22.49;51.29;102206.50;7394758;19;20015;-46
2022/07/15 07:55:46;;;;;;;2.75;1.00;;;;;;;22.66;51.17;102204.44;7389057;19;20018;-47
2022/07/15 07:58:16;;;;;;;2.10;0.70;;;;;;;22.46;47.30;102202.22;7391485;19;20014;-52
2022/07/15 08:00:47;;;;;;;7.60;1.45;;;;;;;22.68;48.36;102205.16;7391733;19;20018;-54
2022/07/15 08:03:17;;;;;;;2.15;0.68;;;;;;;22.42;46.46;102200.78;7390330;19;20010;-53
2022/07/15 08:05:46;;;;;;;4.05;0.45;;;;;;;22.67;45.62;102198.09;7390573;19;20060;-56
2022/07/15 08:08:17;;;;;;;2.53;0.50;;;;;;;22.89;45.27;102200.88;7389220;19;20026;-53
2022/07/15 08:10:49;;;;;;;6.13;0.80;;;;;;;23.11;44.80;102204.66;7393428;19;20240;-53
2022/07/15 08:13:18;;;;;;;23.60;2.13;;;;;;;23.43;45.22;102202.19;7390836;19;20577;-53
2022/07/15 08:15:50;;;;;;;2.88;0.80;;;;;;;23.47;42.90;102203.66;7390045;19;20018;-53
2022/07/15 08:18:19;;;;;;;3.45;0.80;;;;;;;22.74;45.74;102197.53;7389333;19;20021;-52
2022/07/15 08:20:48;;;;;;;5.13;1.10;;;;;;;22.85;47.41;102198.56;7386259;19;20368;-56
2022/07/15 08:23:20;;;;;;;67.13;6.38;;;;;;;23.25;48.55;102196.41;7389114;19;20014;-52
2022/07/15 08:25:51;;;;;;;5.60;1.30;;;;;;;22.99;46.72;102203.72;7390315;19;20049;-51
2022/07/15 08:28:21;;;;;;;11.05;1.55;;;;;;;22.95;48.35;102204.91;7389128;19;20106;-57
2022/07/15 08:30:53;;;;;;;8.13;1.20;;;;;;;22.15;50.99;102210.72;7389926;19;20011;-54
2022/07/15 08:33:22;;;;;;;6.95;1.30;;;;;;;22.05;52.78;102202.53;7389692;19;20030;-53
2022/07/15 08:35:51;;;;;;;6.68;1.55;;;;;;;22.15;52.84;102205.38;7389575;19;20111;-55
2022/07/15 08:38:19;;;;;;;10.70;1.70;;;;;;;22.43;51.29;102209.63;7388393;19;20511;-51
2022/07/15 08:40:48;;;;;;;20.52;2.13;;;;;;;22.64;51.05;102216.06;7387480;19;20018;-50
2022/07/15 08:43:17;;;;;;;34.90;2.80;;;;;;;22.81;49.46;102206.81;7389504;19;20029;-55
2022/07/15 08:45:46;;;;;;;8.77;1.40;;;;;;;23.04;48.44;102212.25;7389893;19;20015;-52
2022/07/15 08:48:20;;;;;;;8.38;1.10;;;;;;;23.25;48.39;102206.28;7388589;19;20129;-54
2022/07/15 08:50:50;;;;;;;4.05;1.20;;;;;;;23.25;46.54;102207.13;7393831;19;20011;-55
2022/07/15 08:53:20;;;;;;;5.30;1.17;;;;;;;23.32;46.17;102208.34;7396483;19;20022;-52
2022/07/15 08:55:50;;;;;;;5.43;1.10;;;;;;;23.30;45.58;102209.47;7400515;19;20011;-52
2022/07/15 08:58:19;;;;;;;3.40;0.82;;;;;;;22.71;44.26;102215.63;7397638;19;20406;-49
2022/07/15 09:00:49;;;;;;;5.07;0.98;;;;;;;22.64;45.30;102221.41;7396334;19;20021;-54
2022/07/15 09:03:20;;;;;;;6.35;1.10;;;;;;;22.85;47.00;102207.41;7398735;19;20044;-55
2022/07/15 09:05:49;;;;;;;1.98;0.60;;;;;;;22.73;44.89;102209.19;7399996;19;20010;-53
2022/07/15 09:08:19;;;;;;;3.65;1.00;;;;;;;22.73;45.61;102205.69;7394803;19;20034;-56
2022/07/15 09:10:51;;;;;;;4.47;1.20;;;;;;;22.80;45.78;102206.94;7399404;19;20360;-54
2022/07/15 09:13:32;;;;;;;2.72;1.00;;;;;;;22.86;45.99;102208.28;7398956;19;20403;-56
2022/07/15 09:16:04;;;;;;;3.00;0.98;;;;;;;22.58;47.06;102207.66;7397144;19;20077;-53
2022/07/15 09:18:38;;;;;;;4.38;1.20;;;;;;;22.60;48.11;102201.22;7394949;19;20019;-52
2022/07/15 09:21:17;;;;;;;5.43;1.75;;;;;;;22.75;48.04;102201.06;7392377;19;20014;-55
2022/07/15 09:23:46;;;;;;;3.53;1.50;;;;;;;23.12;47.35;102198.34;7397021;19;20640;-53
2022/07/15 09:26:26;;;;;;;9.90;1.52;;;;;;;23.10;48.36;102197.56;7400058;19;20321;-55
2022/07/15 09:28:56;;;;;;;13.20;1.92;;;;;;;22.84;47.38;102202.19;7394107;19;20486;-52
2022/07/15 09:34:16;;;;;;;10.57;1.52;;;;;;;22.55;48.77;102192.72;7395698;19;20063;-55
2022/07/15 09:36:50;;;;;;;5.97;1.38;;;;;;;22.73;48.73;102198.50;7396563;19;20025;-57
2022/07/15 09:39:21;;;;;;;48.15;6.28;;;;;;;23.03;49.98;102193.66;7393967;19;20015;-57
2022/07/15 09:41:50;;;;;;;14.23;1.52;;;;;;;23.15;48.46;102203.44;7395648;19;20437;-57
2022/07/15 09:44:21;;;;;;;5.80;1.30;;;;;;;22.24;50.55;102199.41;7395119;19;20393;-54
2022/07/15 09:46:52;;;;;;;6.93;1.63;;;;;;;22.67;51.00;102206.97;7394826;19;20014;-55
2022/07/15 09:49:38;;;;;;;4.32;1.20;;;;;;;22.63;49.64;102213.53;7396121;19;20030;-56
2022/07/15 09:52:09;;;;;;;3.55;1.00;;;;;;;22.48;50.90;102211.97;7400326;19;20007;-56
2022/07/15 09:54:40;;;;;;;3.72;0.88;;;;;;;22.26;50.44;102211.66;7402570;19;20022;-57
2022/07/15 09:57:11;;;;;;;4.95;1.27;;;;;;;22.22;51.84;102203.97;7401359;19;20033;-56
2022/07/15 09:59:40;;;;;;;3.78;1.10;;;;;;;22.49;50.40;102211.00;7401334;19;20304;-56
2022/07/15 10:02:09;;;;;;;5.05;1.23;;;;;;;22.94;49.35;102211.25;7397066;19;20023;-54
2022/07/15 10:04:42;;;;;;;3.78;1.50;;;;;;;22.91;48.65;102209.66;7398084;19;20006;-56
2022/07/15 10:07:14;;;;;;;4.47;1.20;;;;;;;22.62;49.64;102203.78;7396393;19;20340;-57
2022/07/15 10:09:44;;;;;;;24.83;3.13;;;;;;;23.03;50.17;102201.69;7393693;19;20015;-51
2022/07/15 10:12:17;;;;;;;4.43;1.45;;;;;;;22.91;49.21;102204.31;7396724;19;20010;-53
2022/07/15 10:15:00;;;;;;;3.08;1.13;;;;;;;22.98;47.53;102202.00;7397359;19;20074;-56
2022/07/15 10:17:48;;;;;;;2.33;0.88;;;;;;;22.90;46.71;102204.44;7394814;19;20014;-56
2022/07/15 10:20:43;;;;;;;5.03;1.00;;;;;;;22.88;46.99;102201.00;7394818;19;20015;-57
2022/07/15 10:23:27;;;;;;;3.70;1.27;;;;;;;23.14;47.82;102196.41;7393873;19;20011;-57
2022/07/15 10:26:05;;;;;;;3.80;1.48;;;;;;;23.41;46.14;102192.56;7394667;19;20011;-56
2022/07/15 10:28:48;;;;;;;6.60;1.63;;;;;;;23.70;44.46;102190.31;7395308;19;20458;-53
2022/07/15 10:31:21;;;;;;;5.65;0.90;;;;;;;23.14;44.96;102189.22;7394202;19;20078;-55
2022/07/15 10:34:29;;;;;;;4.40;1.00;;;;;;;23.82;45.13;102185.81;7395425;19;20015;-53
2022/07/15 10:37:06;;;;;;;2.50;0.95;;;;;;;24.07;45.04;102171.38;7391991;19;20021;-55
2022/07/15 10:40:05;;;;;;;6.60;1.33;;;;;;;24.25;44.26;102170.84;7393995;19;20018;-55
2022/07/15 10:43:03;;;;;;;7.55;1.30;;;;;;;23.91;42.85;102179.75;7394767;19;20014;-53
2022/07/15 10:45:33;;;;;;;18.90;2.08;;;;;;;24.18;43.70;102165.97;7396878;19;20002;-56
2022/07/15 10:48:30;;;;;;;2.55;0.73;;;;;;;23.78;43.70;102173.63;7396119;19;20018;-50
2022/07/15 10:50:59;;;;;;;4.15;1.00;;;;;;;24.05;43.60;102159.06;7393271;19;20017;-54
2022/07/15 10:53:31;;;;;;;11.45;1.10;;;;;;;24.19;44.38;102158.78;7396839;19;20348;-56
2022/07/15 10:56:30;;;;;;;13.65;1.35;;;;;;;24.34;43.99;102152.19;7393459;19;20006;-57
2022/07/15 10:59:14;;;;;;;11.90;1.75;;;;;;;24.04;43.97;102152.84;7395180;19;20018;-57
2022/07/15 11:01:45;;;;;;;2.67;0.77;;;;;;;23.90;43.43;102150.41;7392495;19;20014;-56
2022/07/15 11:04:17;;;;;;;3.42;0.90;;;;;;;23.15;44.99;102158.84;7394527;19;20452;-52
2022/07/15 11:07:16;;;;;;;24.27;2.00;;;;;;;23.36;45.17;102147.47;7392228;19;20092;-55
2022/07/15 11:09:49;;;;;;;3.97;0.90;;;;;;;23.50;44.12;102149.91;7393091;19;20015;-56
2022/07/15 11:12:19;;;;;;;4.75;0.90;;;;;;;23.66;42.97;102144.19;7392248;19;20108;-51
2022/07/15 11:14:51;;;;;;;4.25;1.00;;;;;;;23.81;43.18;102142.16;7394552;19;20019;-57
2022/07/15 11:17:22;;;;;;;2.42;0.73;;;;;;;24.34;42.42;102140.59;7392234;19;20011;-55
2022/07/15 11:19:53;;;;;;;5.55;0.98;;;;;;;24.45;42.20;102140.56;7392170;19;20352;-56
2022/07/15 11:22:25;;;;;;;10.15;1.27;;;;;;;24.67;42.64;102145.06;7392688;19;20010;-56
2022/07/15 11:24:58;;;;;;;5.78;1.27;;;;;;;25.08;42.21;102149.72;7394526;19;20046;-55
2022/07/15 11:27:27;;;;;;;11.63;1.45;;;;;;;24.62;43.26;102146.41;7393304;19;20025;-56
2022/07/15 11:30:01;;;;;;;7.45;1.10;;;;;;;24.67;41.96;102144.19;7392785;19;20321;-53
2022/07/15 11:32:31;;;;;;;7.00;1.42;;;;;;;24.27;42.12;102147.44;7394225;19;20026;-55
2022/07/15 11:35:02;;;;;;;9.85;1.38;;;;;;;24.21;43.43;102138.09;7394186;19;20010;-54
2022/07/15 11:37:32;;;;;;;5.68;1.00;;;;;;;24.14;42.84;102129.72;7392115;19;20007;-53
2022/07/15 11:44:29;;;;;;;57.22;5.10;;;;;;;24.39;43.41;102122.34;7390727;19;20018;-55
2022/07/15 11:45:46;;;;;;;5.70;1.20;;;;;;;24.46;42.72;102120.84;7391996;19;20026;-54
2022/07/15 11:48:16;;;;;;;2.97;1.15;;;;;;;24.81;41.48;102119.75;7392675;19;20814;-55
2022/07/15 11:50:52;;;;;;;3.78;1.05;;;;;;;25.54;40.23;102116.25;7394168;19;20018;-56
2022/07/15 11:53:22;;;;;;;5.18;1.13;;;;;;;26.28;38.45;102120.44;7394849;19;20021;-55
2022/07/15 11:55:58;;;;;;;15.48;2.10;;;;;;;27.05;38.46;102125.94;7390289;19;20407;-58